sensor_id;sensor_type;location;lat;lon;timestamp;P1;durP1;ratioP1;P2;durP2;ratioP2
15002;SDS011;7597;53.590;10.020;2022-12-05T00:02:16;31.10;;;17.20;;
15002;SDS011;7597;53.590;10.020;2022-12-05T00:04:43;29.63;;;15.73;;
15002;SDS011;7597;53.590;10.020;2022-12-05T00:07:09;27.63;;;15.90;;
15002;SDS011;7597;53.590;10.020;2022-12-05T00:09:36;31.63;;;18.33;;
15002;SDS011;7597;53.590;10.020;2022-12-05T00:12:03;32.60;;;17.63;;
15002;SDS011;7597;53.590;10.020;2022-12-05T00:14:29;26.63;;;16.10;;
15002;SDS011;7597;53.590;10.020;2022-12-05T00:16:56;27.40;;;15.40;;
15002;SDS011;7597;53.590;10.020;2022-12-05T00:19:23;26.43;;;15.77;;
15002;SDS011;7597;53.590;10.020;2022-12-05T00:21:49;27.80;;;17.07;;
15002;SDS011;7597;53.590;10.020;2022-12-05T00:24:16;27.90;;;16.90;;
15002;SDS011;7597;53.590;10.020;2022-12-05T00:26:43;26.80;;;15.67;;
15002;SDS011;7597;53.590;10.020;2022-12-05T00:29:10;23.93;;;15.17;;
15002;SDS011;7597;53.590;10.020;2022-12-05T00:31:37;27.90;;;16.27;;
15002;SDS011;7597;53.590;10.020;2022-12-05T00:34:04;27.60;;;16.33;;
15002;SDS011;7597;53.590;10.020;2022-12-05T00:36:31;25.27;;;15.53;;
15002;SDS011;7597;53.590;10.020;2022-12-05T00:38:58;26.87;;;15.97;;
15002;SDS011;7597;53.590;10.020;2022-12-05T00:41:25;25.27;;;15.63;;
15002;SDS011;7597;53.590;10.020;2022-12-05T00:43:51;25.37;;;15.10;;
15002;SDS011;7597;53.590;10.020;2022-12-05T00:46:18;28.30;;;16.07;;
15002;SDS011;7597;53.590;10.020;2022-12-05T00:48:46;34.80;;;19.07;;
15002;SDS011;7597;53.590;10.020;2022-12-05T00:51:14;35.33;;;19.50;;
15002;SDS011;7597;53.590;10.020;2022-12-05T00:53:39;35.03;;;19.43;;
15002;SDS011;7597;53.590;10.020;2022-12-05T00:56:08;30.00;;;17.20;;
15002;SDS011;7597;53.590;10.020;2022-12-05T00:58:34;26.70;;;16.10;;
15002;SDS011;7597;53.590;10.020;2022-12-05T01:01:04;29.47;;;16.30;;
15002;SDS011;7597;53.590;10.020;2022-12-05T01:03:31;28.93;;;16.50;;
15002;SDS011;7597;53.590;10.020;2022-12-05T01:05:58;28.00;;;16.33;;
15002;SDS011;7597;53.590;10.020;2022-12-05T01:08:24;22.30;;;14.20;;
15002;SDS011;7597;53.590;10.020;2022-12-05T01:10:53;26.97;;;15.50;;
15002;SDS011;7597;53.590;10.020;2022-12-05T01:13:18;24.93;;;15.40;;
15002;SDS011;7597;53.590;10.020;2022-12-05T01:15:45;23.00;;;15.43;;
15002;SDS011;7597;53.590;10.020;2022-12-05T01:18:12;24.93;;;14.63;;
15002;SDS011;7597;53.590;10.020;2022-12-05T01:20:39;24.97;;;15.67;;
15002;SDS011;7597;53.590;10.020;2022-12-05T01:23:06;27.07;;;14.53;;
15002;SDS011;7597;53.590;10.020;2022-12-05T01:25:32;23.87;;;14.80;;
15002;SDS011;7597;53.590;10.020;2022-12-05T01:27:59;23.97;;;15.37;;
15002;SDS011;7597;53.590;10.020;2022-12-05T01:30:25;22.57;;;14.33;;
15002;SDS011;7597;53.590;10.020;2022-12-05T01:32:52;22.33;;;14.73;;
15002;SDS011;7597;53.590;10.020;2022-12-05T01:35:19;24.03;;;14.07;;
15002;SDS011;7597;53.590;10.020;2022-12-05T01:37:45;22.87;;;15.07;;
15002;SDS011;7597;53.590;10.020;2022-12-05T01:40:12;22.07;;;14.53;;
15002;SDS011;7597;53.590;10.020;2022-12-05T01:42:39;24.23;;;15.43;;
15002;SDS011;7597;53.590;10.020;2022-12-05T01:45:09;21.33;;;14.37;;
15002;SDS011;7597;53.590;10.020;2022-12-05T01:47:33;21.97;;;14.77;;
15002;SDS011;7597;53.590;10.020;2022-12-05T01:49:59;22.13;;;14.93;;
15002;SDS011;7597;53.590;10.020;2022-12-05T01:52:26;25.10;;;15.20;;
15002;SDS011;7597;53.590;10.020;2022-12-05T01:54:53;22.00;;;14.93;;
15002;SDS011;7597;53.590;10.020;2022-12-05T01:57:19;23.37;;;14.73;;
15002;SDS011;7597;53.590;10.020;2022-12-05T01:59:47;24.37;;;15.07;;
15002;SDS011;7597;53.590;10.020;2022-12-05T02:02:12;24.57;;;14.47;;
15002;SDS011;7597;53.590;10.020;2022-12-05T02:04:45;20.20;;;14.37;;
15002;SDS011;7597;53.590;10.020;2022-12-05T02:07:14;20.37;;;14.63;;
15002;SDS011;7597;53.590;10.020;2022-12-05T02:09:40;22.40;;;14.80;;
15002;SDS011;7597;53.590;10.020;2022-12-05T02:12:07;22.43;;;14.67;;
15002;SDS011;7597;53.590;10.020;2022-12-05T02:14:45;23.73;;;15.13;;
15002;SDS011;7597;53.590;10.020;2022-12-05T02:20:02;23.80;;;15.50;;
15002;SDS011;7597;53.590;10.020;2022-12-05T02:23:20;23.17;;;15.50;;
15002;SDS011;7597;53.590;10.020;2022-12-05T02:25:49;22.73;;;14.80;;
15002;SDS011;7597;53.590;10.020;2022-12-05T02:28:24;21.73;;;14.00;;
15002;SDS011;7597;53.590;10.020;2022-12-05T02:30:53;24.90;;;15.70;;
15002;SDS011;7597;53.590;10.020;2022-12-05T02:33:22;24.70;;;16.17;;
15002;SDS011;7597;53.590;10.020;2022-12-05T02:38:25;23.60;;;16.07;;
15002;SDS011;7597;53.590;10.020;2022-12-05T02:43:31;24.50;;;15.90;;
15002;SDS011;7597;53.590;10.020;2022-12-05T02:46:00;26.67;;;16.77;;
15002;SDS011;7597;53.590;10.020;2022-12-05T02:48:26;28.37;;;16.87;;
15002;SDS011;7597;53.590;10.020;2022-12-05T02:50:53;25.53;;;16.57;;
15002;SDS011;7597;53.590;10.020;2022-12-05T02:53:19;29.73;;;17.23;;
15002;SDS011;7597;53.590;10.020;2022-12-05T02:55:46;28.97;;;17.40;;
15002;SDS011;7597;53.590;10.020;2022-12-05T02:58:15;26.30;;;16.57;;
15002;SDS011;7597;53.590;10.020;2022-12-05T03:00:41;27.33;;;17.20;;
15002;SDS011;7597;53.590;10.020;2022-12-05T03:03:11;26.97;;;16.80;;
15002;SDS011;7597;53.590;10.020;2022-12-05T03:05:39;30.93;;;17.80;;
15002;SDS011;7597;53.590;10.020;2022-12-05T03:08:07;27.23;;;16.57;;
15002;SDS011;7597;53.590;10.020;2022-12-05T03:10:32;29.80;;;17.50;;
15002;SDS011;7597;53.590;10.020;2022-12-05T03:13:01;27.47;;;16.83;;
15002;SDS011;7597;53.590;10.020;2022-12-05T03:15:27;24.93;;;16.60;;
15002;SDS011;7597;53.590;10.020;2022-12-05T03:17:56;31.10;;;17.97;;
15002;SDS011;7597;53.590;10.020;2022-12-05T03:20:26;27.83;;;17.53;;
15002;SDS011;7597;53.590;10.020;2022-12-05T03:22:56;27.77;;;16.83;;
15002;SDS011;7597;53.590;10.020;2022-12-05T03:25:23;30.17;;;17.67;;
15002;SDS011;7597;53.590;10.020;2022-12-05T03:27:51;28.07;;;17.73;;
15002;SDS011;7597;53.590;10.020;2022-12-05T03:30:17;28.00;;;17.63;;
15002;SDS011;7597;53.590;10.020;2022-12-05T03:32:48;31.30;;;17.60;;
15002;SDS011;7597;53.590;10.020;2022-12-05T03:35:16;29.60;;;17.17;;
15002;SDS011;7597;53.590;10.020;2022-12-05T03:38:00;30.37;;;18.20;;
15002;SDS011;7597;53.590;10.020;2022-12-05T03:40:34;28.87;;;17.80;;
15002;SDS011;7597;53.590;10.020;2022-12-05T03:44:25;31.57;;;18.73;;
15002;SDS011;7597;53.590;10.020;2022-12-05T03:46:06;29.83;;;18.93;;
15002;SDS011;7597;53.590;10.020;2022-12-05T03:48:40;31.93;;;19.07;;
15002;SDS011;7597;53.590;10.020;2022-12-05T03:51:05;31.13;;;19.63;;
15002;SDS011;7597;53.590;10.020;2022-12-05T03:53:32;32.00;;;19.30;;
15002;SDS011;7597;53.590;10.020;2022-12-05T03:56:02;33.73;;;19.70;;
15002;SDS011;7597;53.590;10.020;2022-12-05T03:58:30;33.67;;;18.77;;
15002;SDS011;7597;53.590;10.020;2022-12-05T04:00:57;34.20;;;19.97;;
15002;SDS011;7597;53.590;10.020;2022-12-05T04:03:32;36.03;;;20.03;;
15002;SDS011;7597;53.590;10.020;2022-12-05T04:06:00;33.07;;;18.37;;
15002;SDS011;7597;53.590;10.020;2022-12-05T04:08:28;35.23;;;20.70;;
15002;SDS011;7597;53.590;10.020;2022-12-05T04:10:56;36.93;;;20.17;;
15002;SDS011;7597;53.590;10.020;2022-12-05T04:13:23;33.50;;;19.97;;
15002;SDS011;7597;53.590;10.020;2022-12-05T04:15:53;34.43;;;20.27;;
15002;SDS011;7597;53.590;10.020;2022-12-05T04:18:25;38.43;;;20.77;;
15002;SDS011;7597;53.590;10.020;2022-12-05T04:20:52;37.77;;;21.40;;
15002;SDS011;7597;53.590;10.020;2022-12-05T04:23:24;33.80;;;19.30;;
15002;SDS011;7597;53.590;10.020;2022-12-05T04:26:02;34.60;;;20.47;;
15002;SDS011;7597;53.590;10.020;2022-12-05T04:28:32;36.37;;;20.37;;
15002;SDS011;7597;53.590;10.020;2022-12-05T04:31:06;38.53;;;20.83;;
15002;SDS011;7597;53.590;10.020;2022-12-05T04:33:34;33.50;;;19.53;;
15002;SDS011;7597;53.590;10.020;2022-12-05T04:36:18;37.37;;;20.20;;
15002;SDS011;7597;53.590;10.020;2022-12-05T04:38:47;36.30;;;21.30;;
15002;SDS011;7597;53.590;10.020;2022-12-05T04:41:15;34.47;;;20.60;;
15002;SDS011;7597;53.590;10.020;2022-12-05T04:43:40;35.50;;;20.40;;
15002;SDS011;7597;53.590;10.020;2022-12-05T04:46:08;36.70;;;20.50;;
15002;SDS011;7597;53.590;10.020;2022-12-05T04:48:34;38.60;;;20.50;;
15002;SDS011;7597;53.590;10.020;2022-12-05T04:51:00;37.37;;;21.03;;
15002;SDS011;7597;53.590;10.020;2022-12-05T04:53:28;38.57;;;20.67;;
15002;SDS011;7597;53.590;10.020;2022-12-05T04:55:55;38.67;;;20.57;;
15002;SDS011;7597;53.590;10.020;2022-12-05T04:58:23;37.87;;;19.90;;
15002;SDS011;7597;53.590;10.020;2022-12-05T05:00:51;38.67;;;20.63;;
15002;SDS011;7597;53.590;10.020;2022-12-05T05:03:37;37.20;;;20.13;;
15002;SDS011;7597;53.590;10.020;2022-12-05T05:06:08;40.07;;;20.67;;
15002;SDS011;7597;53.590;10.020;2022-12-05T05:08:34;38.13;;;20.00;;
15002;SDS011;7597;53.590;10.020;2022-12-05T05:11:09;37.70;;;20.73;;
15002;SDS011;7597;53.590;10.020;2022-12-05T05:13:38;40.10;;;20.00;;
15002;SDS011;7597;53.590;10.020;2022-12-05T05:16:05;33.83;;;19.27;;
15002;SDS011;7597;53.590;10.020;2022-12-05T05:18:32;39.77;;;21.13;;
15002;SDS011;7597;53.590;10.020;2022-12-05T05:20:58;37.60;;;20.07;;
15002;SDS011;7597;53.590;10.020;2022-12-05T05:23:25;40.17;;;21.77;;
15002;SDS011;7597;53.590;10.020;2022-12-05T05:25:53;39.93;;;20.03;;
15002;SDS011;7597;53.590;10.020;2022-12-05T05:28:19;46.90;;;20.80;;
15002;SDS011;7597;53.590;10.020;2022-12-05T05:30:46;36.73;;;19.27;;
15002;SDS011;7597;53.590;10.020;2022-12-05T05:33:13;41.63;;;21.23;;
15002;SDS011;7597;53.590;10.020;2022-12-05T05:35:39;39.00;;;19.90;;
15002;SDS011;7597;53.590;10.020;2022-12-05T05:38:06;39.43;;;21.60;;
15002;SDS011;7597;53.590;10.020;2022-12-05T05:40:34;42.60;;;21.40;;
15002;SDS011;7597;53.590;10.020;2022-12-05T05:43:00;41.70;;;21.60;;
15002;SDS011;7597;53.590;10.020;2022-12-05T05:45:26;47.47;;;23.40;;
15002;SDS011;7597;53.590;10.020;2022-12-05T05:47:53;43.30;;;21.30;;
15002;SDS011;7597;53.590;10.020;2022-12-05T05:50:20;49.63;;;22.47;;
15002;SDS011;7597;53.590;10.020;2022-12-05T05:52:46;51.97;;;23.27;;
15002;SDS011;7597;53.590;10.020;2022-12-05T05:55:13;45.37;;;22.47;;
15002;SDS011;7597;53.590;10.020;2022-12-05T05:57:40;50.47;;;22.47;;
15002;SDS011;7597;53.590;10.020;2022-12-05T06:00:07;50.00;;;23.10;;
15002;SDS011;7597;53.590;10.020;2022-12-05T06:02:34;60.60;;;25.93;;
15002;SDS011;7597;53.590;10.020;2022-12-05T06:05:01;59.53;;;26.00;;
15002;SDS011;7597;53.590;10.020;2022-12-05T06:07:27;54.17;;;25.13;;
15002;SDS011;7597;53.590;10.020;2022-12-05T06:09:54;50.57;;;23.07;;
15002;SDS011;7597;53.590;10.020;2022-12-05T06:12:21;51.67;;;24.20;;
15002;SDS011;7597;53.590;10.020;2022-12-05T06:14:48;56.40;;;26.43;;
15002;SDS011;7597;53.590;10.020;2022-12-05T06:17:14;48.70;;;23.37;;
15002;SDS011;7597;53.590;10.020;2022-12-05T06:19:41;53.70;;;24.77;;
15002;SDS011;7597;53.590;10.020;2022-12-05T06:22:08;57.00;;;25.43;;
15002;SDS011;7597;53.590;10.020;2022-12-05T06:24:35;59.13;;;27.13;;
15002;SDS011;7597;53.590;10.020;2022-12-05T06:27:01;59.60;;;23.80;;
15002;SDS011;7597;53.590;10.020;2022-12-05T06:29:28;52.57;;;24.07;;
15002;SDS011;7597;53.590;10.020;2022-12-05T06:31:55;55.67;;;23.60;;
15002;SDS011;7597;53.590;10.020;2022-12-05T06:34:21;52.23;;;23.50;;
15002;SDS011;7597;53.590;10.020;2022-12-05T06:36:48;53.30;;;24.40;;
15002;SDS011;7597;53.590;10.020;2022-12-05T06:39:15;61.07;;;25.17;;
15002;SDS011;7597;53.590;10.020;2022-12-05T06:41:41;56.83;;;24.10;;
15002;SDS011;7597;53.590;10.020;2022-12-05T06:44:08;58.30;;;25.87;;
15002;SDS011;7597;53.590;10.020;2022-12-05T06:46:35;55.23;;;25.10;;
15002;SDS011;7597;53.590;10.020;2022-12-05T06:49:02;52.70;;;22.77;;
15002;SDS011;7597;53.590;10.020;2022-12-05T06:51:29;44.97;;;22.10;;
15002;SDS011;7597;53.590;10.020;2022-12-05T06:53:58;49.97;;;22.30;;
15002;SDS011;7597;53.590;10.020;2022-12-05T06:56:24;48.10;;;22.63;;
15002;SDS011;7597;53.590;10.020;2022-12-05T06:58:51;54.17;;;25.13;;
15002;SDS011;7597;53.590;10.020;2022-12-05T07:01:18;48.17;;;21.20;;
15002;SDS011;7597;53.590;10.020;2022-12-05T07:03:50;55.73;;;22.93;;
15002;SDS011;7597;53.590;10.020;2022-12-05T07:06:17;56.80;;;23.37;;
15002;SDS011;7597;53.590;10.020;2022-12-05T07:08:43;46.30;;;22.57;;
15002;SDS011;7597;53.590;10.020;2022-12-05T07:11:10;54.07;;;23.13;;
15002;SDS011;7597;53.590;10.020;2022-12-05T07:13:37;58.03;;;23.70;;
15002;SDS011;7597;53.590;10.020;2022-12-05T07:16:03;58.87;;;24.97;;
15002;SDS011;7597;53.590;10.020;2022-12-05T07:18:30;64.63;;;25.77;;
15002;SDS011;7597;53.590;10.020;2022-12-05T07:20:58;53.97;;;24.17;;
15002;SDS011;7597;53.590;10.020;2022-12-05T07:23:24;70.07;;;27.10;;
15002;SDS011;7597;53.590;10.020;2022-12-05T07:25:52;65.83;;;26.40;;
15002;SDS011;7597;53.590;10.020;2022-12-05T07:28:18;72.43;;;28.20;;
15002;SDS011;7597;53.590;10.020;2022-12-05T07:30:45;66.67;;;26.90;;
15002;SDS011;7597;53.590;10.020;2022-12-05T07:33:11;64.23;;;24.93;;
15002;SDS011;7597;53.590;10.020;2022-12-05T07:35:38;71.30;;;26.47;;
15002;SDS011;7597;53.590;10.020;2022-12-05T07:38:05;60.60;;;24.20;;
15002;SDS011;7597;53.590;10.020;2022-12-05T07:40:31;56.53;;;23.30;;
15002;SDS011;7597;53.590;10.020;2022-12-05T07:42:58;55.80;;;23.60;;
15002;SDS011;7597;53.590;10.020;2022-12-05T07:45:25;59.30;;;23.43;;
15002;SDS011;7597;53.590;10.020;2022-12-05T07:47:51;56.13;;;23.57;;
15002;SDS011;7597;53.590;10.020;2022-12-05T07:50:18;48.90;;;22.57;;
15002;SDS011;7597;53.590;10.020;2022-12-05T07:52:45;51.83;;;22.50;;
15002;SDS011;7597;53.590;10.020;2022-12-05T07:55:11;50.33;;;21.90;;
15002;SDS011;7597;53.590;10.020;2022-12-05T07:57:38;49.57;;;21.97;;
15002;SDS011;7597;53.590;10.020;2022-12-05T08:00:05;50.30;;;21.53;;
15002;SDS011;7597;53.590;10.020;2022-12-05T08:02:32;49.70;;;22.37;;
15002;SDS011;7597;53.590;10.020;2022-12-05T08:04:59;50.97;;;21.00;;
15002;SDS011;7597;53.590;10.020;2022-12-05T08:07:25;57.33;;;22.53;;
15002;SDS011;7597;53.590;10.020;2022-12-05T08:09:53;50.37;;;21.77;;
15002;SDS011;7597;53.590;10.020;2022-12-05T08:12:20;50.23;;;21.67;;
15002;SDS011;7597;53.590;10.020;2022-12-05T08:14:46;47.90;;;21.13;;
15002;SDS011;7597;53.590;10.020;2022-12-05T08:17:13;46.00;;;20.00;;
15002;SDS011;7597;53.590;10.020;2022-12-05T08:19:40;54.00;;;21.57;;
15002;SDS011;7597;53.590;10.020;2022-12-05T08:22:06;43.10;;;18.83;;
15002;SDS011;7597;53.590;10.020;2022-12-05T08:24:33;45.53;;;21.03;;
15002;SDS011;7597;53.590;10.020;2022-12-05T08:27:00;52.00;;;22.47;;
15002;SDS011;7597;53.590;10.020;2022-12-05T08:29:27;49.50;;;21.97;;
15002;SDS011;7597;53.590;10.020;2022-12-05T08:31:53;47.93;;;21.40;;
15002;SDS011;7597;53.590;10.020;2022-12-05T08:34:20;50.73;;;20.50;;
15002;SDS011;7597;53.590;10.020;2022-12-05T08:36:46;49.03;;;21.47;;
15002;SDS011;7597;53.590;10.020;2022-12-05T08:39:14;51.60;;;21.80;;
15002;SDS011;7597;53.590;10.020;2022-12-05T08:41:40;48.87;;;21.37;;
15002;SDS011;7597;53.590;10.020;2022-12-05T08:44:06;54.30;;;23.53;;
15002;SDS011;7597;53.590;10.020;2022-12-05T08:46:34;48.97;;;20.73;;
15002;SDS011;7597;53.590;10.020;2022-12-05T08:49:00;48.37;;;20.03;;
15002;SDS011;7597;53.590;10.020;2022-12-05T08:51:27;61.70;;;23.07;;
15002;SDS011;7597;53.590;10.020;2022-12-05T08:53:53;50.23;;;20.53;;
15002;SDS011;7597;53.590;10.020;2022-12-05T08:56:20;45.43;;;21.50;;
15002;SDS011;7597;53.590;10.020;2022-12-05T08:58:47;49.20;;;21.10;;
15002;SDS011;7597;53.590;10.020;2022-12-05T09:01:15;48.13;;;21.33;;
15002;SDS011;7597;53.590;10.020;2022-12-05T09:03:42;41.43;;;18.80;;
15002;SDS011;7597;53.590;10.020;2022-12-05T09:06:13;52.37;;;21.97;;
15002;SDS011;7597;53.590;10.020;2022-12-05T09:08:40;41.77;;;18.97;;
15002;SDS011;7597;53.590;10.020;2022-12-05T09:11:10;44.57;;;20.63;;
15002;SDS011;7597;53.590;10.020;2022-12-05T09:13:36;50.83;;;21.93;;
15002;SDS011;7597;53.590;10.020;2022-12-05T09:16:04;46.87;;;20.53;;
15002;SDS011;7597;53.590;10.020;2022-12-05T09:18:33;46.30;;;20.40;;
15002;SDS011;7597;53.590;10.020;2022-12-05T09:21:06;61.60;;;23.47;;
15002;SDS011;7597;53.590;10.020;2022-12-05T09:23:31;53.83;;;22.23;;
15002;SDS011;7597;53.590;10.020;2022-12-05T09:25:58;48.70;;;20.90;;
15002;SDS011;7597;53.590;10.020;2022-12-05T09:28:28;53.47;;;22.50;;
15002;SDS011;7597;53.590;10.020;2022-12-05T09:30:58;48.73;;;21.23;;
15002;SDS011;7597;53.590;10.020;2022-12-05T09:33:25;52.07;;;21.00;;
15002;SDS011;7597;53.590;10.020;2022-12-05T09:35:51;46.77;;;20.47;;
15002;SDS011;7597;53.590;10.020;2022-12-05T09:38:18;48.73;;;20.07;;
15002;SDS011;7597;53.590;10.020;2022-12-05T09:40:45;51.90;;;20.13;;
15002;SDS011;7597;53.590;10.020;2022-12-05T09:45:49;50.57;;;20.53;;
15002;SDS011;7597;53.590;10.020;2022-12-05T09:48:13;45.23;;;19.30;;
15002;SDS011;7597;53.590;10.020;2022-12-05T09:50:41;51.23;;;19.27;;
15002;SDS011;7597;53.590;10.020;2022-12-05T09:53:10;51.57;;;22.10;;
15002;SDS011;7597;53.590;10.020;2022-12-05T09:55:39;44.27;;;19.13;;
15002;SDS011;7597;53.590;10.020;2022-12-05T09:58:05;42.17;;;17.77;;
15002;SDS011;7597;53.590;10.020;2022-12-05T10:00:31;47.90;;;18.57;;
15002;SDS011;7597;53.590;10.020;2022-12-05T10:03:32;46.10;;;19.70;;
15002;SDS011;7597;53.590;10.020;2022-12-05T10:05:47;39.03;;;18.53;;
15002;SDS011;7597;53.590;10.020;2022-12-05T10:08:28;42.47;;;17.80;;
15002;SDS011;7597;53.590;10.020;2022-12-05T10:11:00;52.20;;;19.83;;
15002;SDS011;7597;53.590;10.020;2022-12-05T10:13:38;41.50;;;17.03;;
15002;SDS011;7597;53.590;10.020;2022-12-05T10:16:02;52.70;;;21.40;;
15002;SDS011;7597;53.590;10.020;2022-12-05T10:18:31;44.47;;;19.60;;
15002;SDS011;7597;53.590;10.020;2022-12-05T10:21:03;46.50;;;19.83;;
15002;SDS011;7597;53.590;10.020;2022-12-05T10:23:31;54.73;;;23.00;;
15002;SDS011;7597;53.590;10.020;2022-12-05T10:26:02;61.57;;;28.53;;
15002;SDS011;7597;53.590;10.020;2022-12-05T10:28:36;52.73;;;20.27;;
15002;SDS011;7597;53.590;10.020;2022-12-05T10:31:07;43.80;;;18.90;;
15002;SDS011;7597;53.590;10.020;2022-12-05T10:33:35;48.90;;;20.83;;
15002;SDS011;7597;53.590;10.020;2022-12-05T10:35:58;47.33;;;19.07;;
15002;SDS011;7597;53.590;10.020;2022-12-05T10:38:26;46.47;;;19.47;;
15002;SDS011;7597;53.590;10.020;2022-12-05T10:40:54;45.13;;;19.27;;
15002;SDS011;7597;53.590;10.020;2022-12-05T10:43:24;43.57;;;19.73;;
15002;SDS011;7597;53.590;10.020;2022-12-05T10:45:50;48.70;;;19.67;;
15002;SDS011;7597;53.590;10.020;2022-12-05T10:48:17;54.10;;;22.53;;
15002;SDS011;7597;53.590;10.020;2022-12-05T10:50:44;57.43;;;28.47;;
15002;SDS011;7597;53.590;10.020;2022-12-05T10:53:12;62.40;;;27.77;;
15002;SDS011;7597;53.590;10.020;2022-12-05T10:55:40;42.73;;;19.73;;
15002;SDS011;7597;53.590;10.020;2022-12-05T11:00:50;50.90;;;23.27;;
15002;SDS011;7597;53.590;10.020;2022-12-05T11:03:54;43.57;;;19.80;;
15002;SDS011;7597;53.590;10.020;2022-12-05T11:05:59;44.07;;;19.87;;
15002;SDS011;7597;53.590;10.020;2022-12-05T11:08:27;45.60;;;21.27;;
15002;SDS011;7597;53.590;10.020;2022-12-05T11:11:03;46.70;;;19.57;;
15002;SDS011;7597;53.590;10.020;2022-12-05T11:13:32;38.90;;;18.40;;
15002;SDS011;7597;53.590;10.020;2022-12-05T11:15:58;41.90;;;18.83;;
15002;SDS011;7597;53.590;10.020;2022-12-05T11:18:26;47.30;;;19.47;;
15002;SDS011;7597;53.590;10.020;2022-12-05T11:20:52;40.20;;;19.23;;
15002;SDS011;7597;53.590;10.020;2022-12-05T11:25:53;41.93;;;19.43;;
15002;SDS011;7597;53.590;10.020;2022-12-05T11:31:17;50.03;;;24.50;;
15002;SDS011;7597;53.590;10.020;2022-12-05T11:36:41;34.80;;;18.23;;
15002;SDS011;7597;53.590;10.020;2022-12-05T11:39:08;34.97;;;17.80;;
15002;SDS011;7597;53.590;10.020;2022-12-05T11:41:54;39.70;;;18.90;;
15002;SDS011;7597;53.590;10.020;2022-12-05T11:44:41;39.17;;;19.07;;
15002;SDS011;7597;53.590;10.020;2022-12-05T11:47:09;39.50;;;18.47;;
15002;SDS011;7597;53.590;10.020;2022-12-05T11:49:42;38.43;;;20.87;;
15002;SDS011;7597;53.590;10.020;2022-12-05T11:52:19;37.57;;;18.60;;
15002;SDS011;7597;53.590;10.020;2022-12-05T11:54:48;34.27;;;17.83;;
15002;SDS011;7597;53.590;10.020;2022-12-05T11:57:31;37.50;;;17.63;;
15002;SDS011;7597;53.590;10.020;2022-12-05T12:00:00;32.57;;;17.63;;
15002;SDS011;7597;53.590;10.020;2022-12-05T12:05:18;36.80;;;18.17;;
15002;SDS011;7597;53.590;10.020;2022-12-05T12:07:48;43.13;;;21.77;;
15002;SDS011;7597;53.590;10.020;2022-12-05T12:10:30;34.83;;;18.80;;
15002;SDS011;7597;53.590;10.020;2022-12-05T12:15:51;48.03;;;24.83;;
15002;SDS011;7597;53.590;10.020;2022-12-05T12:18:33;34.40;;;17.37;;
15002;SDS011;7597;53.590;10.020;2022-12-05T12:21:15;40.60;;;20.37;;
15002;SDS011;7597;53.590;10.020;2022-12-05T12:23:47;34.00;;;17.67;;
15002;SDS011;7597;53.590;10.020;2022-12-05T12:26:15;35.50;;;17.60;;
15002;SDS011;7597;53.590;10.020;2022-12-05T12:28:42;34.90;;;18.77;;
15002;SDS011;7597;53.590;10.020;2022-12-05T12:31:18;40.33;;;21.70;;
15002;SDS011;7597;53.590;10.020;2022-12-05T12:34:01;37.37;;;21.17;;
15002;SDS011;7597;53.590;10.020;2022-12-05T12:36:37;36.77;;;18.10;;
15002;SDS011;7597;53.590;10.020;2022-12-05T12:39:09;35.27;;;18.43;;
15002;SDS011;7597;53.590;10.020;2022-12-05T12:42:12;38.90;;;18.93;;
15002;SDS011;7597;53.590;10.020;2022-12-05T12:44:39;31.67;;;17.17;;
15002;SDS011;7597;53.590;10.020;2022-12-05T12:47:03;36.70;;;18.43;;
15002;SDS011;7597;53.590;10.020;2022-12-05T12:49:40;32.80;;;17.00;;
15002;SDS011;7597;53.590;10.020;2022-12-05T12:52:10;35.27;;;17.07;;
15002;SDS011;7597;53.590;10.020;2022-12-05T12:54:46;35.13;;;18.97;;
15002;SDS011;7597;53.590;10.020;2022-12-05T12:57:14;33.50;;;18.93;;
15002;SDS011;7597;53.590;10.020;2022-12-05T12:59:58;32.87;;;16.13;;
15002;SDS011;7597;53.590;10.020;2022-12-05T13:02:42;31.33;;;16.13;;
15002;SDS011;7597;53.590;10.020;2022-12-05T13:07:48;33.30;;;15.83;;
15002;SDS011;7597;53.590;10.020;2022-12-05T13:10:19;29.23;;;16.10;;
15002;SDS011;7597;53.590;10.020;2022-12-05T13:12:43;30.67;;;15.97;;
15002;SDS011;7597;53.590;10.020;2022-12-05T13:15:10;33.67;;;16.20;;
15002;SDS011;7597;53.590;10.020;2022-12-05T13:17:36;27.97;;;15.00;;
15002;SDS011;7597;53.590;10.020;2022-12-05T13:20:03;29.30;;;15.37;;
15002;SDS011;7597;53.590;10.020;2022-12-05T13:22:30;26.00;;;14.60;;
15002;SDS011;7597;53.590;10.020;2022-12-05T13:24:57;27.90;;;15.57;;
15002;SDS011;7597;53.590;10.020;2022-12-05T13:27:24;26.93;;;14.57;;
15002;SDS011;7597;53.590;10.020;2022-12-05T13:29:52;31.83;;;15.47;;
15002;SDS011;7597;53.590;10.020;2022-12-05T13:32:25;27.80;;;14.13;;
15002;SDS011;7597;53.590;10.020;2022-12-05T13:34:57;25.47;;;14.80;;
15002;SDS011;7597;53.590;10.020;2022-12-05T13:37:28;46.97;;;27.07;;
15002;SDS011;7597;53.590;10.020;2022-12-05T13:40:00;36.00;;;21.47;;
15002;SDS011;7597;53.590;10.020;2022-12-05T13:42:32;26.03;;;15.07;;
15002;SDS011;7597;53.590;10.020;2022-12-05T13:45:07;29.23;;;14.33;;
15002;SDS011;7597;53.590;10.020;2022-12-05T13:47:34;28.57;;;14.37;;
15002;SDS011;7597;53.590;10.020;2022-12-05T13:50:13;27.20;;;14.73;;
15002;SDS011;7597;53.590;10.020;2022-12-05T13:52:51;26.80;;;14.93;;
15002;SDS011;7597;53.590;10.020;2022-12-05T13:57:53;24.93;;;13.70;;
15002;SDS011;7597;53.590;10.020;2022-12-05T14:00:20;23.27;;;13.53;;
15002;SDS011;7597;53.590;10.020;2022-12-05T14:02:55;22.30;;;13.13;;
15002;SDS011;7597;53.590;10.020;2022-12-05T14:13:37;24.37;;;13.53;;
15002;SDS011;7597;53.590;10.020;2022-12-05T14:18:43;24.70;;;12.77;;
15002;SDS011;7597;53.590;10.020;2022-12-05T14:21:13;22.17;;;12.67;;
15002;SDS011;7597;53.590;10.020;2022-12-05T14:23:44;23.43;;;12.80;;
15002;SDS011;7597;53.590;10.020;2022-12-05T14:27:19;20.63;;;12.27;;
15002;SDS011;7597;53.590;10.020;2022-12-05T14:29:16;21.23;;;12.87;;
15002;SDS011;7597;53.590;10.020;2022-12-05T14:31:46;24.20;;;12.43;;
15002;SDS011;7597;53.590;10.020;2022-12-05T14:34:17;20.30;;;11.60;;
15002;SDS011;7597;53.590;10.020;2022-12-05T14:39:19;18.70;;;11.53;;
15002;SDS011;7597;53.590;10.020;2022-12-05T14:41:45;19.70;;;12.43;;
15002;SDS011;7597;53.590;10.020;2022-12-05T14:44:15;19.90;;;11.70;;
15002;SDS011;7597;53.590;10.020;2022-12-05T14:46:39;23.67;;;13.10;;
15002;SDS011;7597;53.590;10.020;2022-12-05T14:51:53;21.73;;;12.03;;
15002;SDS011;7597;53.590;10.020;2022-12-05T14:54:14;23.47;;;13.47;;
15002;SDS011;7597;53.590;10.020;2022-12-05T14:56:42;20.43;;;12.20;;
15002;SDS011;7597;53.590;10.020;2022-12-05T14:59:30;20.63;;;11.70;;
15002;SDS011;7597;53.590;10.020;2022-12-05T15:01:57;19.20;;;12.47;;
15002;SDS011;7597;53.590;10.020;2022-12-05T15:04:29;22.03;;;12.40;;
15002;SDS011;7597;53.590;10.020;2022-12-05T15:06:56;20.80;;;12.23;;
15002;SDS011;7597;53.590;10.020;2022-12-05T15:09:29;20.37;;;11.83;;
15002;SDS011;7597;53.590;10.020;2022-12-05T15:11:56;20.03;;;11.57;;
15002;SDS011;7597;53.590;10.020;2022-12-05T15:14:24;20.17;;;11.90;;
15002;SDS011;7597;53.590;10.020;2022-12-05T15:16:50;19.30;;;11.60;;
15002;SDS011;7597;53.590;10.020;2022-12-05T15:19:17;21.00;;;11.40;;
15002;SDS011;7597;53.590;10.020;2022-12-05T15:21:45;20.57;;;12.27;;